Time;durP1;ratioP1;P1;durP2;ratioP2;P2;SDS_P1;SDS_P2;PMS_P1;PMS_P2;Temp;Humidity;BMP_temperature;BMP_pressure;BME280_temperature;BME280_humidity;BME280_pressure;Samples;Min_cycle;Max_cycle;Signal;HPM_P1;HPM_P2
2021/08/16 00:01:58;;;;;;;13.15;6.63;;;22.50;76.60;;;;;;5045902;28;20032;-71
2021/08/16 00:04:42;;;;;;;13.77;7.07;;;22.50;77.00;;;;;;5045507;28;20048;-71
2021/08/16 00:07:27;;;;;;;13.48;6.88;;;22.50;77.20;;;;;;5045745;28;20247;-70
2021/08/16 00:10:13;;;;;;;16.00;7.28;;;22.50;77.20;;;;;;5045635;28;20365;-70
2021/08/16 00:12:57;;;;;;;12.82;6.55;;;22.50;77.30;;;;;;5045508;28;20067;-70
2021/08/16 00:15:41;;;;;;;12.35;6.82;;;22.50;77.20;;;;;;5044350;28;20025;-70
2021/08/16 00:18:25;;;;;;;11.82;6.72;;;22.50;77.30;;;;;;5045222;28;20071;-69
2021/08/16 00:21:09;;;;;;;15.52;6.93;;;22.50;77.40;;;;;;5045601;28;20090;-71
2021/08/16 00:23:53;;;;;;;15.75;7.38;;;22.50;77.40;;;;;;5045017;28;20099;-70
2021/08/16 00:26:37;;;;;;;16.45;6.43;;;22.40;77.40;;;;;;5045202;28;20339;-70
2021/08/16 00:29:22;;;;;;;15.85;7.22;;;22.50;77.40;;;;;;5045504;28;20037;-70
2021/08/16 00:32:06;;;;;;;13.15;7.00;;;22.40;77.20;;;;;;5045386;28;20036;-71
2021/08/16 00:34:50;;;;;;;14.65;7.57;;;22.40;77.20;;;;;;5045258;28;20091;-70
2021/08/16 00:37:35;;;;;;;11.90;6.30;;;22.40;77.20;;;;;;5045157;28;20037;-70
2021/08/16 00:40:19;;;;;;;15.13;6.78;;;22.40;77.20;;;;;;5045076;28;20095;-71
2021/08/16 00:43:04;;;;;;;11.93;6.45;;;22.40;77.20;;;;;;5044921;28;20270;-71
2021/08/16 00:45:48;;;;;;;14.13;6.65;;;22.40;77.10;;;;;;5044835;28;20085;-71
2021/08/16 00:48:32;;;;;;;21.40;6.78;;;22.40;77.10;;;;;;5044698;28;20217;-70
2021/08/16 00:51:17;;;;;;;10.80;6.43;;;22.40;77.00;;;;;;5044551;28;20092;-70
2021/08/16 00:54:05;;;;;;;10.30;6.32;;;22.40;76.80;;;;;;5044140;28;20029;-71
2021/08/16 00:56:50;;;;;;;11.55;6.03;;;22.40;76.60;;;;;;5044650;28;20343;-71
2021/08/16 00:59:34;;;;;;;15.50;6.10;;;22.40;76.20;;;;;;5045014;28;20035;-71
2021/08/16 01:02:19;;;;;;;11.38;6.28;;;22.40;76.10;;;;;;5044812;28;20033;-70
2021/08/16 01:05:04;;;;;;;14.15;5.55;;;22.30;75.80;;;;;;5044759;28;20033;-71
2021/08/16 01:07:49;;;;;;;15.88;6.35;;;22.40;75.50;;;;;;5044629;28;20036;-71
2021/08/16 01:10:34;;;;;;;10.80;5.57;;;22.30;75.40;;;;;;5044532;28;20210;-70
2021/08/16 01:13:18;;;;;;;10.70;5.55;;;22.30;75.40;;;;;;5043496;28;20089;-71
2021/08/16 01:16:04;;;;;;;20.75;6.93;;;22.30;75.00;;;;;;5044325;28;20052;-70
2021/08/16 01:18:48;;;;;;;19.20;6.43;;;22.30;75.60;;;;;;5044238;28;20193;-70
2021/08/16 01:21:33;;;;;;;11.93;6.15;;;22.00;76.40;;;;;;5044768;28;20088;-70
2021/08/16 01:24:17;;;;;;;13.95;6.25;;;21.90;76.80;;;;;;5043821;28;20099;-70
2021/08/16 01:27:06;;;;;;;13.25;6.40;;;21.80;76.80;;;;;;5044178;28;20095;-71
2021/08/16 01:29:50;;;;;;;14.90;6.80;;;21.90;76.90;;;;;;5044089;28;20102;-71
2021/08/16 01:32:35;;;;;;;15.35;7.05;;;21.90;77.10;;;;;;5043270;28;20335;-71
2021/08/16 01:35:20;;;;;;;10.45;5.78;;;21.90;77.10;;;;;;5044559;28;20044;-71
2021/08/16 01:38:04;;;;;;;11.73;6.63;;;21.90;77.20;;;;;;5042929;28;20028;-71
2021/08/16 01:40:48;;;;;;;12.45;6.55;;;21.90;77.20;;;;;;5043802;28;20067;-70
2021/08/16 01:43:32;;;;;;;11.82;6.40;;;21.90;77.20;;;;;;5043742;28;20355;-71
2021/08/16 01:46:18;;;;;;;22.65;7.63;;;22.00;77.40;;;;;;5043717;28;20036;-71
2021/08/16 01:49:03;;;;;;;13.48;6.22;;;21.90;77.30;;;;;;5042926;28;20040;-70
2021/08/16 01:51:47;;;;;;;12.65;6.82;;;22.00;77.20;;;;;;5043677;28;20044;-70
2021/08/16 01:54:31;;;;;;;15.27;6.30;;;22.00;77.30;;;;;;5043616;28;20032;-70
2021/08/16 01:57:16;;;;;;;15.98;5.95;;;21.90;77.10;;;;;;5043579;28;20208;-70
2021/08/16 02:00:00;;;;;;;12.40;6.25;;;21.90;77.30;;;;;;5044042;28;20028;-71
2021/08/16 02:02:44;;;;;;;17.67;6.47;;;21.90;77.00;;;;;;5043656;28;20041;-71
2021/08/16 02:05:28;;;;;;;18.35;6.35;;;21.80;77.20;;;;;;5043570;28;20049;-71
2021/08/16 02:08:12;;;;;;;12.02;6.72;;;21.80;77.20;;;;;;5043518;28;20044;-71
2021/08/16 02:10:57;;;;;;;11.98;6.20;;;21.80;77.30;;;;;;5043494;28;20064;-71
2021/08/16 02:13:41;;;;;;;9.80;6.10;;;21.80;77.30;;;;;;5043800;28;20202;-71
2021/08/16 02:16:25;;;;;;;9.55;6.20;;;21.80;77.20;;;;;;5043567;28;20399;-71
2021/08/16 02:19:09;;;;;;;9.90;6.07;;;21.80;77.20;;;;;;5043617;28;20024;-71
2021/08/16 02:21:54;;;;;;;9.88;5.78;;;21.80;77.20;;;;;;5043387;28;20240;-71
2021/08/16 02:24:38;;;;;;;8.02;5.63;;;21.80;77.10;;;;;;5043157;28;20080;-71
2021/08/16 02:27:22;;;;;;;12.07;6.05;;;21.80;77.10;;;;;;5043307;28;20033;-70
2021/08/16 02:30:07;;;;;;;12.15;6.35;;;21.80;77.00;;;;;;5043747;28;20028;-71
2021/08/16 02:32:51;;;;;;;12.02;5.72;;;21.80;76.90;;;;;;5043430;28;20036;-71
2021/08/16 02:35:35;;;;;;;11.40;6.40;;;21.80;77.00;;;;;;5043244;28;20075;-71
2021/08/16 02:38:20;;;;;;;12.75;6.30;;;21.80;77.00;;;;;;5044870;28;20113;-71
2021/08/16 02:41:04;;;;;;;13.32;6.40;;;21.80;76.80;;;;;;5047531;28;20084;-71
2021/08/16 02:43:48;;;;;;;12.55;6.43;;;21.70;76.90;;;;;;5047372;28;20049;-71
2021/08/16 02:46:33;;;;;;;12.93;6.45;;;21.70;77.00;;;;;;5046027;28;20033;-71
2021/08/16 02:49:17;;;;;;;16.08;6.43;;;21.70;76.90;;;;;;5046937;28;20036;-71
2021/08/16 02:52:03;;;;;;;13.48;6.28;;;21.70;76.90;;;;;;5047075;28;20347;-71
2021/08/16 02:54:48;;;;;;;12.70;5.93;;;21.70;76.80;;;;;;5046928;28;20052;-70
2021/08/16 02:57:32;;;;;;;12.82;6.25;;;21.70;76.70;;;;;;5046820;28;20032;-70
2021/08/16 03:00:16;;;;;;;11.70;5.75;;;21.70;76.60;;;;;;5046724;28;20040;-70
2021/08/16 03:03:00;;;;;;;13.35;6.03;;;21.60;76.60;;;;;;5047060;28;20316;-71
2021/08/16 03:05:45;;;;;;;12.20;6.20;;;21.60;76.60;;;;;;5046813;28;20233;-71
2021/08/16 03:08:29;;;;;;;16.08;7.00;;;21.60;76.50;;;;;;5047103;28;20336;-71
2021/08/16 03:11:13;;;;;;;10.30;6.00;;;21.70;76.40;;;;;;5046971;28;20041;-71
2021/08/16 03:13:57;;;;;;;13.05;6.28;;;21.60;76.40;;;;;;5046858;28;20062;-71
2021/08/16 03:16:42;;;;;;;11.27;5.35;;;21.60;76.40;;;;;;5046693;28;20071;-71
2021/08/16 03:19:26;;;;;;;13.60;5.80;;;21.60;76.30;;;;;;5046783;28;20037;-71
2021/08/16 03:22:10;;;;;;;15.90;5.90;;;21.50;76.30;;;;;;5046467;28;20029;-71
2021/08/16 03:24:55;;;;;;;14.57;5.82;;;21.50;76.30;;;;;;5046270;28;20048;-71
2021/08/16 03:27:39;;;;;;;10.57;5.63;;;21.50;76.30;;;;;;5046249;28;20092;-71
2021/08/16 03:30:23;;;;;;;12.27;6.25;;;21.50;76.20;;;;;;5046885;28;20028;-70
2021/08/16 03:33:08;;;;;;;12.63;5.88;;;21.50;76.30;;;;;;5046606;28;20220;-71
2021/08/16 03:35:52;;;;;;;10.57;5.68;;;21.50;76.20;;;;;;5046245;28;20052;-71
2021/08/16 03:38:36;;;;;;;11.40;5.32;;;21.40;76.10;;;;;;5046057;28;20390;-71
2021/08/16 03:41:20;;;;;;;11.68;5.40;;;21.40;76.10;;;;;;5046373;28;20067;-71
2021/08/16 03:44:05;;;;;;;12.32;5.32;;;21.50;76.20;;;;;;5045913;28;20032;-71
2021/08/16 03:46:49;;;;;;;10.65;5.70;;;21.40;76.10;;;;;;5046241;28;20036;-71
2021/08/16 03:49:33;;;;;;;14.13;5.45;;;21.40;76.10;;;;;;5045694;28;20028;-71
2021/08/16 03:52:18;;;;;;;11.95;5.40;;;21.40;76.10;;;;;;5045815;28;20028;-71
2021/08/16 03:55:02;;;;;;;11.18;4.97;;;21.40;76.20;;;;;;5045759;28;20083;-70
2021/08/16 03:57:47;;;;;;;9.68;5.20;;;21.40;76.20;;;;;;5045653;28;20056;-70
2021/08/16 04:00:31;;;;;;;9.48;5.43;;;21.40;76.30;;;;;;5045621;28;20068;-70
2021/08/16 04:03:16;;;;;;;9.88;5.55;;;21.40;76.20;;;;;;5045503;28;20045;-70
2021/08/16 04:06:00;;;;;;;16.20;5.68;;;21.40;76.00;;;;;;5045969;28;20024;-71
2021/08/16 04:08:44;;;;;;;10.43;5.43;;;21.40;75.90;;;;;;5045627;28;20075;-71
2021/08/16 04:11:28;;;;;;;11.13;5.00;;;21.40;76.00;;;;;;5045966;28;20032;-71
2021/08/16 04:14:13;;;;;;;7.70;5.05;;;21.30;76.10;;;;;;5044487;28;20037;-71
2021/08/16 04:16:57;;;;;;;13.75;5.60;;;21.30;76.20;;;;;;5045256;28;20044;-71
2021/08/16 04:19:41;;;;;;;10.73;5.47;;;21.30;76.30;;;;;;5045297;28;20072;-71
2021/08/16 04:22:25;;;;;;;9.65;5.40;;;21.30;76.30;;;;;;5045106;28;20109;-71
2021/08/16 04:25:11;;;;;;;10.95;5.72;;;21.30;76.40;;;;;;5045189;28;20055;-71
2021/08/16 04:27:56;;;;;;;8.88;5.28;;;21.30;76.40;;;;;;5045115;28;20355;-71
2021/08/16 04:30:40;;;;;;;10.23;5.53;;;21.30;76.70;;;;;;5045176;28;20029;-70
2021/08/16 04:33:25;;;;;;;11.55;5.60;;;21.30;76.80;;;;;;5044948;28;20056;-70
2021/08/16 04:36:09;;;;;;;13.93;5.97;;;21.30;76.90;;;;;;5045366;28;20029;-71
2021/08/16 04:38:53;;;;;;;8.85;5.57;;;21.30;77.00;;;;;;5045102;28;20217;-71
2021/08/16 04:41:37;;;;;;;9.25;5.15;;;21.30;77.00;;;;;;5044780;28;20039;-71
2021/08/16 04:44:21;;;;;;;7.88;5.05;;;21.30;77.00;;;;;;5044816;28;20072;-71
2021/08/16 04:47:05;;;;;;;9.48;5.22;;;21.30;76.80;;;;;;5043783;28;20094;-71
2021/08/16 04:49:50;;;;;;;15.00;5.30;;;21.30;76.90;;;;;;5044674;28;20040;-71
2021/08/16 04:52:34;;;;;;;13.25;5.60;;;21.30;76.90;;;;;;5044658;28;20099;-71
2021/08/16 04:55:18;;;;;;;9.50;5.13;;;21.30;77.00;;;;;;5044431;28;20079;-71
2021/08/16 04:58:02;;;;;;;8.23;5.18;;;21.30;76.90;;;;;;5044501;28;20044;-71
2021/08/16 05:00:47;;;;;;;9.60;5.10;;;21.30;76.90;;;;;;5043920;28;20093;-70
2021/08/16 05:03:31;;;;;;;11.73;5.25;;;21.30;76.70;;;;;;5044599;28;20033;-70
2021/08/16 05:06:15;;;;;;;10.82;5.45;;;21.30;76.60;;;;;;5044326;28;20028;-70
2021/08/16 05:09:00;;;;;;;12.32;5.90;;;21.30;76.50;;;;;;5044801;28;20274;-71
2021/08/16 05:11:45;;;;;;;10.38;5.22;;;21.30;76.50;;;;;;5044399;28;20036;-71
2021/08/16 05:14:29;;;;;;;11.25;5.32;;;21.30;76.50;;;;;;5044608;28;20040;-71
2021/08/16 05:17:13;;;;;;;10.02;5.22;;;21.30;76.40;;;;;;5044850;28;20110;-71
2021/08/16 05:19:58;;;;;;;10.95;5.85;;;21.30;76.50;;;;;;5044311;28;20040;-71
2021/08/16 05:22:43;;;;;;;9.43;5.20;;;21.30;76.60;;;;;;5044166;28;20068;-70
2021/08/16 05:25:27;;;;;;;10.05;5.05;;;21.30;76.40;;;;;;5044180;28;20072;-71
2021/08/16 05:28:12;;;;;;;12.40;5.30;;;21.30;76.40;;;;;;5044198;28;20063;-71
2021/08/16 05:30:57;;;;;;;8.98;5.13;;;21.30;76.30;;;;;;5043146;28;20067;-71
2021/08/16 05:33:41;;;;;;;10.05;5.72;;;21.20;76.50;;;;;;5043982;28;20076;-71
2021/08/16 05:36:25;;;;;;;11.45;5.47;;;21.10;76.80;;;;;;5043785;28;20032;-71
2021/08/16 05:39:09;;;;;;;9.02;5.10;;;21.10;76.70;;;;;;5044289;28;20020;-71
2021/08/16 05:41:53;;;;;;;9.05;4.95;;;21.10;77.00;;;;;;5043915;28;20044;-71
2021/08/16 05:44:37;;;;;;;9.50;5.00;;;21.20;77.00;;;;;;5043960;28;20068;-71
2021/08/16 05:47:22;;;;;;;9.35;4.78;;;21.20;76.90;;;;;;5044193;28;20032;-71
2021/08/16 05:50:07;;;;;;;8.95;4.45;;;21.20;76.50;;;;;;5044105;28;20071;-71
2021/08/16 05:52:51;;;;;;;12.73;4.88;;;21.20;76.90;;;;;;5043591;28;20040;-71
2021/08/16 05:55:36;;;;;;;8.82;4.63;;;21.20;76.60;;;;;;5043555;28;20033;-71
2021/08/16 05:58:20;;;;;;;6.35;4.47;;;21.20;76.20;;;;;;5043557;28;20056;-71
2021/08/16 06:01:05;;;;;;;7.68;4.60;;;21.30;76.00;;;;;;5043558;28;20417;-71
2021/08/16 06:03:48;;;;;;;7.78;3.90;;;21.20;76.00;;;;;;5043500;28;20087;-71
2021/08/16 06:06:33;;;;;;;7.38;4.00;;;21.20;75.40;;;;;;5043457;28;20091;-71
2021/08/16 06:09:17;;;;;;;7.32;3.90;;;21.10;74.90;;;;;;5043437;28;20060;-70
2021/08/16 06:12:02;;;;;;;6.32;3.13;;;21.10;74.90;;;;;;5043874;28;20020;-71
2021/08/16 06:14:46;;;;;;;7.18;4.05;;;21.10;74.70;;;;;;5047783;28;20040;-71
2021/08/16 06:17:31;;;;;;;9.38;3.88;;;21.10;75.00;;;;;;5048324;28;20091;-71
2021/08/16 06:20:15;;;;;;;7.50;4.45;;;21.10;75.10;;;;;;5047959;28;20064;-71
2021/08/16 06:22:59;;;;;;;8.65;3.90;;;21.10;75.40;;;;;;5047153;28;20033;-71
2021/08/16 06:25:43;;;;;;;12.23;4.30;;;21.10;75.80;;;;;;5047559;28;20095;-71
2021/08/16 06:28:27;;;;;;;9.65;3.78;;;21.10;76.30;;;;;;5047142;28;20067;-71
2021/08/16 06:31:12;;;;;;;8.95;4.47;;;21.10;76.30;;;;;;5047444;28;20048;-71
2021/08/16 06:33:56;;;;;;;7.07;4.05;;;21.10;76.20;;;;;;5047466;28;20048;-70
2021/08/16 06:36:42;;;;;;;12.07;4.05;;;21.10;76.20;;;;;;5047206;28;20071;-70
2021/08/16 06:39:28;;;;;;;6.90;3.80;;;21.20;76.20;;;;;;5047082;28;20044;-71
2021/08/16 06:42:12;;;;;;;6.75;3.78;;;21.20;76.50;;;;;;5047483;28;20075;-71
2021/08/16 06:44:56;;;;;;;7.65;3.72;;;21.30;76.60;;;;;;5047210;28;20048;-71
2021/08/16 06:47:40;;;;;;;7.40;3.95;;;21.40;76.60;;;;;;5046134;28;20137;-71
2021/08/16 06:50:24;;;;;;;6.13;3.70;;;21.40;76.70;;;;;;5047716;28;20363;-71
2021/08/16 06:53:12;;;;;;;7.93;4.30;;;21.50;77.20;;;;;;5046828;28;20072;-71
2021/08/16 06:55:56;;;;;;;6.53;3.83;;;21.60;77.40;;;;;;5046831;28;20036;-71
2021/08/16 06:58:41;;;;;;;10.00;4.45;;;21.60;76.70;;;;;;5046776;28;20068;-71
2021/08/16 07:01:26;;;;;;;8.77;4.03;;;21.80;76.70;;;;;;5046685;28;20040;-71
2021/08/16 07:04:10;;;;;;;8.35;3.90;;;21.80;76.80;;;;;;5046594;28;20052;-71
2021/08/16 07:06:54;;;;;;;10.25;3.90;;;21.80;76.80;;;;;;5046654;28;20057;-71
2021/08/16 07:09:39;;;;;;;11.30;4.50;;;21.90;76.40;;;;;;5045718;28;20205;-71
2021/08/16 07:12:23;;;;;;;11.13;4.03;;;22.10;76.40;;;;;;5046473;28;20024;-70
2021/08/16 07:15:07;;;;;;;7.07;4.40;;;22.10;76.40;;;;;;5046956;28;20020;-70
2021/08/16 07:17:51;;;;;;;6.97;4.15;;;22.20;76.40;;;;;;5046604;28;20125;-71
2021/08/16 07:20:36;;;;;;;9.80;4.05;;;22.20;76.30;;;;;;5046405;28;20083;-71
2021/08/16 07:23:21;;;;;;;8.98;4.43;;;22.20;76.10;;;;;;5046202;28;20060;-71
2021/08/16 07:26:06;;;;;;;12.05;4.63;;;22.30;75.70;;;;;;5046735;28;20040;-71
2021/08/16 07:28:50;;;;;;;7.50;4.30;;;22.80;74.50;;;;;;5046654;28;20032;-71
2021/08/16 07:31:34;;;;;;;7.75;4.75;;;23.60;72.30;;;;;;5046475;28;20367;-71
2021/08/16 07:34:19;;;;;;;8.40;4.30;;;24.30;70.40;;;;;;5046302;28;20052;-71
2021/08/16 07:37:04;;;;;;;9.85;4.18;;;25.20;68.00;;;;;;5046312;28;20033;-72
2021/08/16 07:39:48;;;;;;;6.22;3.97;;;25.80;66.00;;;;;;5046154;28;20048;-71
2021/08/16 07:42:33;;;;;;;6.97;4.18;;;26.00;65.90;;;;;;5045754;28;20205;-71
2021/08/16 07:45:17;;;;;;;9.70;4.25;;;25.90;66.40;;;;;;5045906;28;20097;-71
2021/08/16 07:48:03;;;;;;;8.60;3.72;;;25.80;66.50;;;;;;5045476;28;20068;-71
2021/08/16 07:50:47;;;;;;;5.50;3.72;;;25.80;66.60;;;;;;5046006;28;20060;-71
2021/08/16 07:53:32;;;;;;;7.50;4.00;;;25.50;66.40;;;;;;5046294;28;20144;-72
2021/08/16 07:56:16;;;;;;;6.88;4.15;;;25.30;66.90;;;;;;5046163;28;20029;-72
2021/08/16 07:59:00;;;;;;;6.68;3.33;;;25.10;67.60;;;;;;5045458;28;20051;-72
2021/08/16 08:01:45;;;;;;;7.18;3.45;;;24.90;68.10;;;;;;5045587;28;20044;-71
2021/08/16 08:04:29;;;;;;;6.28;3.45;;;24.60;67.90;;;;;;5045574;28;20036;-72
2021/08/16 08:07:15;;;;;;;7.95;4.00;;;24.60;68.10;;;;;;5045519;28;20048;-71
2021/08/16 08:09:59;;;;;;;7.70;3.75;;;24.40;68.90;;;;;;5045714;28;20387;-71
2021/08/16 08:12:45;;;;;;;7.80;4.03;;;24.30;69.10;;;;;;5045536;28;20078;-71
2021/08/16 08:15:29;;;;;;;9.98;4.07;;;24.20;69.10;;;;;;5045328;28;20021;-71
2021/08/16 08:18:13;;;;;;;6.25;3.75;;;24.10;68.70;;;;;;5045345;28;20021;-70
2021/08/16 08:20:57;;;;;;;6.97;4.15;;;24.00;69.00;;;;;;5045725;28;20036;-71
2021/08/16 08:23:42;;;;;;;15.07;4.90;;;23.90;69.30;;;;;;5044957;28;20068;-71
2021/08/16 08:26:26;;;;;;;10.20;4.55;;;23.90;70.00;;;;;;5045711;28;20036;-71
2021/08/16 08:29:10;;;;;;;7.55;4.07;;;23.90;69.80;;;;;;5045514;28;20424;-72
2021/08/16 08:31:54;;;;;;;8.57;4.30;;;23.80;70.00;;;;;;5045290;28;20036;-72
2021/08/16 08:34:39;;;;;;;11.18;4.50;;;23.80;69.90;;;;;;5045181;28;20079;-71
2021/08/16 08:37:23;;;;;;;9.60;4.80;;;23.90;70.10;;;;;;5044418;28;20033;-71
2021/08/16 08:40:08;;;;;;;8.25;4.60;;;23.90;70.50;;;;;;5044902;28;20225;-72
2021/08/16 08:42:53;;;;;;;9.95;4.65;;;23.90;70.10;;;;;;5044054;28;20079;-71
2021/08/16 08:45:38;;;;;;;8.85;4.13;;;24.00;70.40;;;;;;5044748;28;20080;-71
2021/08/16 08:48:22;;;;;;;7.65;4.55;;;23.80;70.50;;;;;;5044596;28;20056;-71
2021/08/16 08:51:07;;;;;;;7.30;4.32;;;23.80;70.60;;;;;;5045106;28;20025;-72
2021/08/16 08:53:51;;;;;;;7.15;4.60;;;23.80;70.40;;;;;;5044740;28;20217;-71
2021/08/16 08:56:36;;;;;;;6.90;4.63;;;23.80;70.50;;;;;;5044484;28;20147;-72
2021/08/16 08:59:20;;;;;;;6.43;4.40;;;23.80;70.20;;;;;;5044588;28;20067;-72
2021/08/16 09:02:07;;;;;;;7.05;4.43;;;23.70;70.50;;;;;;5044413;28;20032;-72
2021/08/16 09:04:53;;;;;;;9.70;4.80;;;23.70;71.00;;;;;;5044489;28;20161;-72
2021/08/16 09:07:38;;;;;;;7.22;4.30;;;23.60;70.90;;;;;;5044342;28;20036;-71
2021/08/16 09:10:22;;;;;;;9.13;4.68;;;23.60;70.90;;;;;;5043325;28;20032;-72
2021/08/16 09:13:06;;;;;;;7.03;4.13;;;23.50;71.20;;;;;;5044260;28;20032;-71
2021/08/16 09:15:52;;;;;;;8.27;4.75;;;23.50;71.50;;;;;;5044244;28;20033;-71
2021/08/16 09:18:36;;;;;;;7.65;4.50;;;23.50;71.80;;;;;;5043284;28;20028;-71
2021/08/16 09:21:39;;;;;;;8.48;5.18;;;23.40;72.50;;;;;;5044082;28;20043;-70
2021/08/16 09:24:27;;;;;;;12.05;5.43;;;23.30;73.30;;;;;;5043847;28;20045;-70
2021/08/16 09:27:12;;;;;;;10.25;5.10;;;23.30;73.70;;;;;;5044475;28;20029;-71
2021/08/16 09:29:56;;;;;;;10.68;4.90;;;23.30;74.10;;;;;;5044154;28;20036;-71
2021/08/16 09:32:40;;;;;;;8.45;4.90;;;23.30;73.70;;;;;;5043954;28;20091;-72
2021/08/16 09:35:25;;;;;;;8.30;4.63;;;23.30;74.10;;;;;;5044321;28;20355;-71
2021/08/16 09:38:09;;;;;;;7.78;4.68;;;23.30;74.00;;;;;;5044336;28;20048;-71
2021/08/16 09:40:53;;;;;;;8.43;4.78;;;23.30;74.10;;;;;;5042918;28;20032;-71
2021/08/16 09:43:37;;;;;;;10.68;5.05;;;23.30;74.00;;;;;;5042967;28;20036;-71
2021/08/16 09:46:22;;;;;;;7.47;4.75;;;23.30;74.50;;;;;;5044041;28;20339;-71
2021/08/16 09:49:07;;;;;;;7.60;4.85;;;23.30;74.70;;;;;;5043924;28;20196;-72
2021/08/16 09:52:00;;;;;;;8.45;4.97;;;23.30;74.50;;;;;;5044019;28;20213;-71
2021/08/16 09:54:44;;;;;;;8.63;5.32;;;23.30;74.70;;;;;;5043732;28;20029;-71
2021/08/16 09:57:31;;;;;;;6.60;4.63;;;23.30;74.70;;;;;;5028737;28;20216;-71
2021/08/16 10:00:15;;;;;;;8.77;4.78;;;23.40;74.60;;;;;;5043598;28;20021;-70
2021/08/16 10:03:00;;;;;;;9.05;4.82;;;23.40;74.80;;;;;;5043931;28;20045;-71
2021/08/16 10:05:46;;;;;;;8.45;5.38;;;23.50;74.40;;;;;;5043708;28;20063;-72
2021/08/16 10:08:31;;;;;;;9.85;5.72;;;23.50;74.30;;;;;;5044039;28;20092;-71
2021/08/16 10:11:18;;;;;;;8.27;5.03;;;23.50;74.20;;;;;;5042991;28;20136;-72
2021/08/16 10:14:02;;;;;;;7.32;4.88;;;23.60;74.50;;;;;;5043939;28;20125;-72
2021/08/16 10:16:48;;;;;;;8.02;4.90;;;23.50;74.50;;;;;;5043764;28;20041;-71
2021/08/16 10:19:41;;;;;;;8.02;5.10;;;23.50;74.30;;;;;;5028998;28;20072;-71
2021/08/16 10:22:25;;;;;;;7.95;4.90;;;23.50;74.20;;;;;;5042530;28;20268;-71
2021/08/16 10:25:17;;;;;;;8.90;5.20;;;23.50;73.90;;;;;;5042459;28;20051;-71
2021/08/16 10:28:01;;;;;;;7.28;4.63;;;23.50;73.70;;;;;;5043485;28;20056;-71
2021/08/16 10:30:45;;;;;;;6.20;4.25;;;23.60;73.90;;;;;;5043460;28;20032;-71
2021/08/16 10:33:30;;;;;;;7.65;4.90;;;23.60;74.20;;;;;;5043276;28;20028;-71
2021/08/16 10:36:20;;;;;;;7.55;5.15;;;23.60;74.30;;;;;;5028410;28;20028;-70
2021/08/16 10:39:04;;;;;;;8.70;5.30;;;23.60;74.30;;;;;;5043674;28;20033;-72
2021/08/16 10:41:48;;;;;;;8.23;5.38;;;23.60;73.30;;;;;;5043292;28;20041;-71
2021/08/16 10:44:48;;;;;;;9.05;4.93;;;23.60;73.00;;;;;;5043627;28;20037;-71
2021/08/16 10:47:33;;;;;;;8.43;5.45;;;23.60;72.60;;;;;;5043216;28;20308;-72
2021/08/16 10:50:21;;;;;;;8.55;5.45;;;23.50;72.50;;;;;;5042709;28;20041;-71
2021/08/16 10:53:06;;;;;;;7.07;5.38;;;23.50;71.70;;;;;;5042153;28;20079;-71
2021/08/16 10:55:51;;;;;;;8.32;4.85;;;23.50;71.60;;;;;;5043103;28;20036;-71
2021/08/16 10:58:36;;;;;;;10.70;5.45;;;23.50;71.60;;;;;;5043005;28;20048;-71
2021/08/16 11:01:27;;;;;;;8.85;5.32;;;23.40;71.70;;;;;;5045985;28;20093;-71
2021/08/16 11:04:15;;;;;;;10.90;5.68;;;23.40;71.60;;;;;;5046743;28;20040;-72
2021/08/16 11:07:01;;;;;;;9.93;5.25;;;23.40;72.00;;;;;;5046676;28;20029;-71
2021/08/16 11:09:57;;;;;;;9.43;6.10;;;23.30;72.60;;;;;;5046643;28;20049;-71
2021/08/16 11:12:42;;;;;;;11.73;6.70;;;23.30;73.10;;;;;;5046540;28;20025;-71
2021/08/16 11:15:32;;;;;;;9.30;6.20;;;23.30;73.00;;;;;;5046444;28;20020;-71
2021/08/16 11:18:18;;;;;;;10.85;7.82;;;23.30;73.10;;;;;;5046456;28;20024;-71
2021/08/16 11:21:03;;;;;;;14.70;6.65;;;23.30;73.00;;;;;;5046850;28;20024;-71
2021/08/16 11:24:00;;;;;;;12.05;6.80;;;23.30;72.90;;;;;;5046170;28;20056;-71
2021/08/16 11:26:47;;;;;;;10.00;6.50;;;23.30;71.80;;;;;;5046368;28;20037;-71
2021/08/16 11:29:32;;;;;;;11.93;7.07;;;23.30;72.40;;;;;;5046762;28;20343;-71
2021/08/16 11:32:21;;;;;;;10.35;6.63;;;23.20;72.10;;;;;;5046659;28;20083;-71
2021/08/16 11:35:06;;;;;;;9.70;6.30;;;23.20;72.20;;;;;;5045587;28;20094;-71
2021/08/16 11:37:50;;;;;;;11.55;6.95;;;23.20;72.40;;;;;;5046126;28;20371;-71
2021/08/16 11:40:34;;;;;;;12.00;6.53;;;23.20;72.40;;;;;;5046036;28;20057;-71
2021/08/16 11:43:25;;;;;;;11.38;6.28;;;23.20;72.40;;;;;;5046141;28;20032;-71
2021/08/16 11:46:16;;;;;;;9.82;6.28;;;23.10;72.40;;;;;;5045952;28;20044;-71
2021/08/16 11:49:00;;;;;;;10.73;6.75;;;23.10;72.50;;;;;;5045893;28;20079;-71
2021/08/16 11:51:45;;;;;;;12.18;6.45;;;23.10;72.30;;;;;;5044921;28;20028;-71
2021/08/16 11:54:35;;;;;;;11.43;7.53;;;23.10;72.40;;;;;;5044871;28;20068;-71
2021/08/16 11:57:21;;;;;;;11.43;7.32;;;23.10;72.50;;;;;;5044744;28;20020;-70
2021/08/16 12:00:06;;;;;;;11.18;7.18;;;23.10;73.30;;;;;;5046125;28;20048;-71
2021/08/16 12:02:50;;;;;;;14.38;7.20;;;23.00;73.30;;;;;;5045385;28;20036;-71
2021/08/16 12:05:34;;;;;;;15.98;8.52;;;23.00;73.70;;;;;;5045893;28;20067;-71
2021/08/16 12:08:21;;;;;;;14.70;8.82;;;23.00;73.50;;;;;;5045487;28;20060;-71
2021/08/16 12:11:12;;;;;;;13.40;8.02;;;23.00;74.10;;;;;;5045379;28;20041;-71
2021/08/16 12:13:57;;;;;;;;;;;22.90;74.60;;;;;;5045758;28;20148;-71
2021/08/16 12:16:41;;;;;;;14.77;8.85;;;22.80;75.20;;;;;;5048300;28;20007;-71
2021/08/16 12:19:25;;;;;;;12.75;8.50;;;22.90;74.70;;;;;;5045532;28;20028;-71
2021/08/16 12:22:10;;;;;;;17.02;9.20;;;22.80;74.90;;;;;;5045201;28;20229;-71
2021/08/16 12:25:07;;;;;;;16.02;9.05;;;22.70;75.40;;;;;;5045180;28;20044;-71
2021/08/16 12:27:59;;;;;;;10.88;8.40;;;22.70;75.10;;;;;;5045191;28;20029;-71
2021/08/16 12:30:43;;;;;;;14.93;8.63;;;22.60;75.40;;;;;;5045103;28;20328;-71
2021/08/16 12:33:28;;;;;;;12.68;7.97;;;22.60;75.50;;;;;;5045243;28;20325;-70
2021/08/16 12:36:12;;;;;;;13.60;8.07;;;22.50;75.50;;;;;;5044983;28;20075;-68
2021/08/16 12:39:02;;;;;;;13.88;8.60;;;22.60;75.60;;;;;;5030473;28;20075;-71
2021/08/16 12:41:46;;;;;;;14.70;8.77;;;22.50;75.90;;;;;;5045038;28;20109;-71
2021/08/16 12:44:30;;;;;;;12.80;8.18;;;22.50;76.00;;;;;;5044421;28;20059;-71
2021/08/16 12:47:14;;;;;;;13.10;8.50;;;22.40;76.10;;;;;;5045225;28;20139;-71
2021/08/16 12:50:00;;;;;;;13.32;8.70;;;22.40;76.10;;;;;;5045116;28;20076;-71
2021/08/16 12:52:44;;;;;;;15.63;8.88;;;22.40;76.30;;;;;;5045033;28;20068;-71
2021/08/16 12:55:28;;;;;;;14.07;9.23;;;22.40;76.40;;;;;;5044921;28;20036;-71
2021/08/16 12:58:12;;;;;;;14.40;8.48;;;22.40;76.40;;;;;;5044787;28;20036;-71
2021/08/16 13:00:58;;;;;;;12.63;8.15;;;22.30;76.30;;;;;;5044656;28;20036;-71
2021/08/16 13:03:42;;;;;;;12.52;7.60;;;22.30;76.70;;;;;;5044437;28;20060;-71
2021/08/16 13:06:26;;;;;;;13.55;7.95;;;22.30;76.70;;;;;;5044387;28;20397;-70
2021/08/16 13:09:10;;;;;;;10.52;7.13;;;22.30;76.50;;;;;;5044839;28;20064;-71
2021/08/16 13:11:55;;;;;;;11.45;7.40;;;22.30;76.80;;;;;;5044482;28;20123;-71
2021/08/16 13:14:39;;;;;;;11.65;7.13;;;22.30;76.70;;;;;;5044452;28;20036;-71
2021/08/16 13:17:23;;;;;;;9.77;6.90;;;22.30;76.60;;;;;;5044765;28;20037;-71
2021/08/16 13:20:08;;;;;;;12.93;7.80;;;22.30;76.50;;;;;;5044135;28;20072;-71
2021/08/16 13:22:52;;;;;;;9.70;7.22;;;22.30;76.50;;;;;;5043479;28;20056;-71
2021/08/16 13:25:37;;;;;;;12.85;7.93;;;22.30;76.50;;;;;;5044185;28;20088;-71
2021/08/16 13:28:21;;;;;;;14.85;8.35;;;22.20;76.60;;;;;;5043986;28;20056;-71
2021/08/16 13:31:05;;;;;;;11.75;7.80;;;22.20;76.70;;;;;;5044361;28;20037;-71
2021/08/16 13:33:49;;;;;;;14.52;8.00;;;22.20;76.70;;;;;;5044067;28;20048;-71
2021/08/16 13:36:33;;;;;;;17.08;8.50;;;22.20;76.80;;;;;;5043987;28;20076;-71
2021/08/16 13:39:18;;;;;;;16.67;8.30;;;22.10;76.90;;;;;;5043721;28;20021;-70
2021/08/16 13:42:02;;;;;;;14.23;8.65;;;22.10;76.80;;;;;;5044466;28;20090;-71
2021/08/16 13:44:46;;;;;;;12.90;7.80;;;22.00;76.90;;;;;;5043932;28;20037;-71
2021/08/16 13:47:30;;;;;;;16.38;8.50;;;22.10;76.90;;;;;;5044259;28;20159;-71
2021/08/16 13:50:15;;;;;;;16.02;8.75;;;22.00;76.80;;;;;;5043632;28;20087;-71
2021/08/16 13:52:59;;;;;;;14.65;8.10;;;22.00;76.80;;;;;;5043528;28;20071;-71
2021/08/16 13:55:44;;;;;;;13.18;8.05;;;22.00;76.90;;;;;;5043569;28;20179;-72
2021/08/16 13:58:28;;;;;;;14.30;8.23;;;21.90;77.00;;;;;;5043550;28;20033;-71
2021/08/16 14:01:13;;;;;;;12.40;7.88;;;22.00;77.00;;;;;;5043886;28;20036;-71
2021/08/16 14:03:58;;;;;;;14.13;7.95;;;21.90;76.90;;;;;;5042427;28;20040;-71
2021/08/16 14:06:42;;;;;;;11.32;7.65;;;21.90;76.90;;;;;;5043531;28;20093;-71
2021/08/16 14:09:26;;;;;;;11.88;7.25;;;21.90;76.80;;;;;;5043467;28;20068;-71
2021/08/16 14:12:10;;;;;;;12.93;8.07;;;21.90;76.90;;;;;;5043906;28;20025;-71